Time;durP1;ratioP1;P1;durP2;ratioP2;P2;SDS_P1;SDS_P2;PMS_P1;PMS_P2;Temp;Humidity;BMP_temperature;BMP_pressure;BME280_temperature;BME280_humidity;BME280_pressure;Samples;Min_cycle;Max_cycle;Signal;HPM_P1;HPM_P2
2024/01/25 05:51:35;;;;;;;15.90;9.70;;;;;;;0.28;100.00;99145.15;112870;1244;23381;-47
2024/01/25 05:54:02;;;;;;;13.30;8.70;;;;;;;0.29;100.00;99142.10;112837;1239;22461;-46
2024/01/25 05:56:29;;;;;;;15.70;10.20;;;;;;;0.31;100.00;99141.80;112847;1243;23091;-47
2024/01/25 05:58:56;;;;;;;14.40;8.80;;;;;;;0.34;100.00;99135.16;112751;1238;22931;-51
2024/01/25 06:01:23;;;;;;;13.60;8.40;;;;;;;0.37;100.00;99136.98;112793;1236;22365;-46
2024/01/25 06:03:50;;;;;;;15.70;9.10;;;;;;;0.41;100.00;99133.45;112782;1237;22391;-51
2024/01/25 06:06:17;;;;;;;16.70;10.50;;;;;;;0.45;100.00;99133.87;112795;1251;22869;-52
2024/01/25 06:08:44;;;;;;;13.50;8.40;;;;;;;0.48;100.00;99135.67;112787;1243;23016;-53
2024/01/25 06:11:21;;;;;;;13.50;8.90;;;;;;;0.51;100.00;99136.77;112755;1236;22957;-52
2024/01/25 06:13:48;;;;;;;10.80;7.90;;;;;;;0.54;100.00;99131.52;112759;1251;22192;-53
2024/01/25 06:16:15;;;;;;;12.60;8.50;;;;;;;0.59;100.00;99134.69;112709;1244;23287;-50
2024/01/25 06:18:42;;;;;;;15.60;9.60;;;;;;;0.62;100.00;99134.41;112695;1239;22379;-51
2024/01/25 06:21:09;;;;;;;13.40;8.80;;;;;;;0.67;100.00;99131.60;112672;1248;22360;-51
2024/01/25 06:23:35;;;;;;;14.50;9.20;;;;;;;0.72;100.00;99127.94;112572;1247;22412;-53
2024/01/25 06:26:04;;;;;;;13.90;9.10;;;;;;;0.75;100.00;99123.36;112563;1241;22300;-52
2024/01/25 06:28:33;;;;;;;13.40;8.80;;;;;;;0.78;100.00;99120.86;112310;1251;22463;-52
2024/01/25 06:32:02;;;;;;;13.60;9.70;;;;;;;0.82;100.00;99118.52;112614;1251;22448;-46
2024/01/25 06:39:13;;;;;;;15.10;10.40;;;;;;;0.87;100.00;99111.92;112505;1248;22346;-50
2024/01/25 06:47:16;;;;;;;16.10;10.10;;;;;;;0.94;100.00;99116.89;112465;1251;22323;-52
2024/01/25 06:49:58;;;;;;;18.50;12.00;;;;;;;0.97;100.00;99113.66;113390;1244;22152;31
2024/01/25 06:53:03;;;;;;;17.80;12.40;;;;;;;0.97;100.00;99110.40;112616;1247;22332;-52
2024/01/25 06:55:30;;;;;;;20.50;12.50;;;;;;;0.98;100.00;99110.94;112665;1238;23222;-53
2024/01/25 06:57:57;;;;;;;22.90;13.30;;;;;;;1.00;100.00;99110.13;112815;1246;23375;-48
2024/01/25 07:00:24;;;;;;;20.30;12.80;;;;;;;1.02;100.00;99109.98;112917;1249;22340;-51
2024/01/25 07:02:52;;;;;;;25.80;13.40;;;;;;;1.06;100.00;99111.80;112634;1249;23085;-47
2024/01/25 07:05:24;;;;;;;21.30;14.10;;;;;;;1.12;100.00;99110.52;112824;1247;22191;31
2024/01/25 07:07:54;;;;;;;30.50;16.20;;;;;;;1.17;100.00;99110.29;112707;1249;22374;-47
2024/01/25 07:10:23;;;;;;;26.70;14.80;;;;;;;1.24;100.00;99103.88;112517;1249;23100;-45
2024/01/25 07:12:53;;;;;;;28.20;16.60;;;;;;;1.30;100.00;99102.64;112567;1249;22401;-48
2024/01/25 07:15:26;;;;;;;22.30;14.30;;;;;;;1.38;100.00;99096.91;112593;1249;22764;-49
2024/01/25 07:18:19;;;;;;;26.50;15.20;;;;;;;1.48;100.00;99098.11;112381;1249;22809;-48
2024/01/25 07:20:55;;;;;;;28.10;15.50;;;;;;;1.55;100.00;99098.94;112166;1249;22882;-51
2024/01/25 07:23:56;;;;;;;22.90;14.70;;;;;;;1.66;100.00;99102.56;112366;1249;22246;-46
2024/01/25 07:26:48;;;;;;;29.80;15.20;;;;;;;1.76;100.00;99101.84;112658;1249;22423;-50
2024/01/25 07:37:34;;;;;;;27.20;14.70;;;;;;;1.96;100.00;99096.14;112862;1249;22366;-52
2024/01/25 07:40:12;;;;;;;22.20;14.20;;;;;;;1.96;100.00;99097.85;108203;1249;5353698;-52
2024/01/25 07:42:52;;;;;;;28.20;15.90;;;;;;;1.94;100.00;99093.55;112487;1249;22341;-46
2024/01/25 07:45:59;;;;;;;29.00;16.00;;;;;;;1.94;100.00;99097.83;112620;1248;22908;-46
2024/01/25 07:49:00;;;;;;;25.80;15.30;;;;;;;1.96;100.00;99097.00;112533;1249;22398;-46
2024/01/25 07:51:35;;;;;;;31.00;17.50;;;;;;;2.00;100.00;99096.55;112507;1249;22356;-45
2024/01/25 07:54:05;;;;;;;26.50;16.10;;;;;;;2.05;100.00;99095.43;112455;1249;23819;-52
2024/01/25 07:56:32;;;;;;;32.90;19.70;;;;;;;2.09;100.00;99097.05;112818;1237;22897;-51
2024/01/25 07:59:00;;;;;;;39.90;20.10;;;;;;;2.11;100.00;99097.59;112833;1249;22847;-47
2024/01/25 08:01:29;;;;;;;31.90;18.50;;;;;;;2.12;100.00;99092.10;112531;1247;22361;-50
2024/01/25 08:03:59;;;;;;;32.90;17.80;;;;;;;2.16;100.00;99091.81;112672;1249;22397;-47
2024/01/25 08:06:28;;;;;;;29.30;17.40;;;;;;;2.21;100.00;99090.84;112606;1249;23189;-52
2024/01/25 08:08:56;;;;;;;35.60;18.90;;;;;;;2.24;100.00;99093.80;112426;1249;22529;-52
2024/01/25 08:11:24;;;;;;;31.00;17.30;;;;;;;2.27;100.00;99095.92;112820;1249;22416;-50
2024/01/25 08:13:51;;;;;;;26.00;15.00;;;;;;;2.30;100.00;99094.77;112534;1249;22872;-46
2024/01/25 08:16:21;;;;;;;31.50;18.20;;;;;;;2.34;100.00;99092.41;112716;1249;23434;-50
2024/01/25 08:18:49;;;;;;;31.60;17.50;;;;;;;2.38;100.00;99091.44;112715;1249;22689;-45
2024/01/25 08:21:17;;;;;;;29.10;16.30;;;;;;;2.40;100.00;99092.84;112631;1249;22382;-46
2024/01/25 08:23:45;;;;;;;29.90;16.40;;;;;;;2.45;100.00;99088.92;112688;1249;23139;-47
2024/01/25 08:26:13;;;;;;;26.10;14.30;;;;;;;2.48;100.00;99087.08;112743;1245;23175;-46
2024/01/25 08:28:43;;;;;;;27.10;15.20;;;;;;;2.49;100.00;99088.65;112450;1249;22839;-50
2024/01/25 08:31:10;;;;;;;29.90;15.00;;;;;;;2.49;100.00;99081.77;112846;1249;22669;-45
2024/01/25 08:33:41;;;;;;;24.40;13.90;;;;;;;2.51;100.00;99081.29;112790;1249;22963;-51
2024/01/25 08:36:11;;;;;;;21.50;13.10;;;;;;;2.52;100.00;99080.77;112816;1249;22449;-51
2024/01/25 08:38:39;;;;;;;21.50;13.30;;;;;;;2.51;100.00;99082.13;112463;1249;23683;-47
2024/01/25 08:41:06;;;;;;;26.70;15.40;;;;;;;2.49;100.00;99079.16;112843;1249;22404;-46
2024/01/25 08:43:33;;;;;;;24.70;15.50;;;;;;;2.47;100.00;99077.43;112872;1249;23205;-46
2024/01/25 08:46:00;;;;;;;26.10;14.00;;;;;;;2.46;100.00;99078.11;112947;1249;22854;-46
2024/01/25 08:48:28;;;;;;;22.00;12.20;;;;;;;2.44;100.00;99079.99;112852;1248;22580;-46
2024/01/25 08:50:55;;;;;;;26.00;13.50;;;;;;;2.45;100.00;99077.24;112903;1240;22173;-53
2024/01/25 08:53:26;;;;;;;25.70;14.00;;;;;;;2.46;100.00;99078.11;112889;1240;22432;-52
2024/01/25 08:55:54;;;;;;;25.50;13.50;;;;;;;2.47;100.00;99074.16;112851;1249;22779;-53
2024/01/25 08:58:21;;;;;;;27.00;14.00;;;;;;;2.49;100.00;99081.08;112857;1247;22379;-52
2024/01/25 09:00:48;;;;;;;21.70;13.10;;;;;;;2.53;100.00;99080.61;112878;1249;22356;-51
2024/01/25 09:03:16;;;;;;;25.20;14.60;;;;;;;2.59;100.00;99073.63;112880;1249;22423;-47
2024/01/25 09:05:53;;;;;;;24.50;13.70;;;;;;;2.65;100.00;99071.64;112626;1249;22142;-47
2024/01/25 09:08:21;;;;;;;25.00;14.30;;;;;;;2.69;100.00;99073.23;112736;1249;22919;-46
2024/01/25 09:10:47;;;;;;;25.90;12.80;;;;;;;2.72;100.00;99071.38;112750;1249;22382;-46
2024/01/25 09:13:15;;;;;;;25.00;14.20;;;;;;;2.76;100.00;99073.84;112794;1249;22249;-52
2024/01/25 09:15:44;;;;;;;26.80;14.90;;;;;;;2.77;100.00;99070.56;112842;1249;23435;-53
2024/01/25 09:18:11;;;;;;;27.90;15.90;;;;;;;2.77;100.00;99069.54;112763;1249;22388;-47
2024/01/25 09:20:38;;;;;;;30.80;15.30;;;;;;;2.77;100.00;99066.78;112553;1237;23092;-45
2024/01/25 09:23:07;;;;;;;29.30;15.60;;;;;;;2.78;100.00;99061.27;112550;1249;22152;-49
2024/01/25 09:25:38;;;;;;;33.30;17.60;;;;;;;2.77;100.00;99058.34;112466;1241;22450;-47
2024/01/25 09:28:06;;;;;;;31.50;17.20;;;;;;;2.76;100.00;99056.61;112589;1249;22491;-47
2024/01/25 09:30:36;;;;;;;32.30;16.90;;;;;;;2.77;100.00;99051.27;112544;1249;22146;-47
2024/01/25 09:33:04;;;;;;;30.00;14.40;;;;;;;2.80;100.00;99057.36;112583;1249;22867;-47
2024/01/25 09:35:38;;;;;;;26.60;13.00;;;;;;;2.80;100.00;99053.40;112513;1249;22353;-48
2024/01/25 09:38:12;;;;;;;23.70;13.30;;;;;;;2.81;100.00;99051.16;112610;1249;23093;-52
2024/01/25 09:40:40;;;;;;;24.00;13.50;;;;;;;2.81;100.00;99055.81;112446;1249;22391;-52
2024/01/25 09:43:08;;;;;;;28.20;14.40;;;;;;;2.82;100.00;99049.96;112855;1249;22408;-47
2024/01/25 09:45:36;;;;;;;30.30;16.40;;;;;;;2.84;100.00;99050.68;112464;1249;22250;-52
2024/01/25 09:48:07;;;;;;;31.30;16.50;;;;;;;2.85;100.00;99049.16;112674;1249;22312;-48
2024/01/25 09:50:38;;;;;;;23.90;14.10;;;;;;;2.85;100.00;99043.98;112867;1249;22358;-46
2024/01/25 09:53:06;;;;;;;20.90;12.10;;;;;;;2.86;100.00;99044.85;112730;1249;22424;-46
2024/01/25 09:55:36;;;;;;;23.00;11.10;;;;;;;2.91;100.00;99044.73;112651;1249;22361;-52
2024/01/25 09:58:08;;;;;;;22.20;10.10;;;;;;;2.97;100.00;99043.93;112548;1249;22383;-52
2024/01/25 10:00:38;;;;;;;21.00;12.40;;;;;;;3.00;100.00;99048.43;112630;1249;22791;-51
2024/01/25 10:03:06;;;;;;;18.40;10.90;;;;;;;3.05;100.00;99045.74;112483;1249;23084;-52
2024/01/25 10:05:36;;;;;;;20.60;13.30;;;;;;;3.15;100.00;99041.52;112648;1246;23266;-52
2024/01/25 10:08:12;;;;;;;16.60;10.40;;;;;;;3.28;100.00;99040.27;112581;1249;23215;-47
2024/01/25 10:10:41;;;;;;;22.10;10.10;;;;;;;3.40;100.00;99038.99;112531;1249;22391;-46
2024/01/25 10:13:22;;;;;;;17.00;9.70;;;;;;;3.49;100.00;99033.91;112415;1249;22266;-50
2024/01/25 10:15:57;;;;;;;14.60;7.90;;;;;;;3.57;100.00;99030.00;112349;1249;22383;-51
2024/01/25 10:18:26;;;;;;;18.80;9.00;;;;;;;3.70;100.00;99030.10;112591;1249;23066;-46
2024/01/25 10:21:03;;;;;;;20.10;9.30;;;;;;;3.82;100.00;99029.16;112749;1249;23381;-51
2024/01/25 10:36:17;;;;;;;22.80;10.80;;;;;;;3.86;100.00;99018.31;112753;1249;23100;-47
2024/01/25 10:38:50;;;;;;;14.40;6.90;;;;;;;3.89;100.00;99016.95;112626;1249;22424;-52
2024/01/25 10:41:50;;;;;;;11.10;6.10;;;;;;;3.97;100.00;99021.49;112545;1249;22253;-50
2024/01/25 10:44:19;;;;;;;11.70;7.10;;;;;;;4.06;100.00;99018.45;112888;1249;22377;-55
2024/01/25 10:46:49;;;;;;;10.50;6.90;;;;;;;4.21;100.00;99012.31;112873;1249;23030;-50
2024/01/25 10:49:21;;;;;;;9.60;5.90;;;;;;;4.36;100.00;99009.10;112678;1249;23026;-47
2024/01/25 10:51:49;;;;;;;8.80;6.20;;;;;;;4.42;100.00;99010.17;112718;1249;22684;-50
2024/01/25 10:54:19;;;;;;;9.80;5.70;;;;;;;4.41;100.00;99005.16;112616;1249;22491;-47
2024/01/25 10:56:48;;;;;;;10.50;5.50;;;;;;;4.37;100.00;99004.45;112477;1249;22327;-53
2024/01/25 10:59:18;;;;;;;11.70;5.10;;;;;;;4.36;100.00;99001.69;112404;1249;22260;-57
2024/01/25 11:01:48;;;;;;;10.20;5.80;;;;;;;4.43;100.00;99000.50;112511;1249;22266;-58
2024/01/25 11:04:19;;;;;;;12.30;5.10;;;;;;;4.58;100.00;99001.25;112499;1249;22389;-52
2024/01/25 11:06:48;;;;;;;10.70;4.80;;;;;;;4.86;100.00;99001.33;112772;1249;22245;-49
2024/01/25 11:09:20;;;;;;;10.90;5.00;;;;;;;5.10;100.00;99000.52;112345;1249;23249;-49
2024/01/25 11:12:06;;;;;;;6.70;4.60;;;;;;;5.20;100.00;99007.60;112324;1244;22932;-54
2024/01/25 11:18:26;;;;;;;8.00;5.00;;;;;;;5.05;100.00;99006.38;112581;1249;23642;-59
2024/01/25 11:21:42;;;;;;;9.60;5.10;;;;;;;5.03;100.00;98997.90;112671;1237;22733;-57
2024/01/25 11:28:16;;;;;;;11.60;5.10;;;;;;;4.91;100.00;98994.96;112672;1249;23402;-54
2024/01/25 11:30:43;;;;;;;7.50;4.70;;;;;;;4.80;100.00;98994.58;112513;1249;22388;-58
2024/01/25 11:33:11;;;;;;;8.90;4.70;;;;;;;4.74;100.00;98995.95;112497;1249;22760;-53
2024/01/25 11:35:54;;;;;;;7.50;5.00;;;;;;;4.67;100.00;98992.47;112535;1249;22490;-53
2024/01/25 11:38:33;;;;;;;7.70;4.80;;;;;;;4.62;100.00;98989.34;112723;1249;22892;-52
2024/01/25 11:41:06;;;;;;;10.60;5.40;;;;;;;4.57;100.00;98986.57;112824;1239;22410;-54
2024/01/25 11:43:57;;;;;;;10.70;5.40;;;;;;;4.51;100.00;98989.66;112864;1249;22460;-55
2024/01/25 11:46:30;;;;;;;8.50;4.70;;;;;;;4.46;100.00;98989.47;112846;1249;23113;-55
2024/01/25 11:49:00;;;;;;;10.80;5.00;;;;;;;4.42;100.00;98987.73;112793;1249;22782;-54
2024/01/25 11:51:27;;;;;;;10.80;5.20;;;;;;;4.39;100.00;98986.66;112704;1241;22361;-54
2024/01/25 11:53:54;;;;;;;10.30;6.30;;;;;;;4.37;100.00;98989.95;112785;1249;22401;-55
2024/01/25 11:56:32;;;;;;;11.20;5.40;;;;;;;4.34;100.00;98988.55;112821;1249;22986;-55
2024/01/25 11:58:59;;;;;;;14.00;5.60;;;;;;;4.31;100.00;98989.58;112788;1249;23240;-55
2024/01/25 12:01:27;;;;;;;8.40;4.80;;;;;;;4.27;100.00;98988.52;112805;1249;22449;-50
2024/01/25 12:03:55;;;;;;;10.50;5.20;;;;;;;4.25;100.00;98989.20;112679;1249;22877;-47
2024/01/25 12:06:23;;;;;;;13.80;5.90;;;;;;;4.23;100.00;98991.79;112747;1249;23392;-49
2024/01/25 12:08:51;;;;;;;11.70;7.50;;;;;;;4.20;100.00;98991.94;112815;1249;22409;-47
2024/01/25 12:11:18;;;;;;;13.30;7.70;;;;;;;4.16;100.00;98992.61;112799;1249;23252;-47
2024/01/25 12:13:45;;;;;;;15.20;7.20;;;;;;;4.12;100.00;98996.39;112850;1249;22176;-51
2024/01/25 12:16:12;;;;;;;11.40;6.50;;;;;;;4.05;100.00;98992.04;112883;1249;23182;-51
2024/01/25 12:18:40;;;;;;;14.90;7.50;;;;;;;3.98;100.00;98994.23;112708;1249;22397;-50
2024/01/25 12:21:07;;;;;;;13.10;7.10;;;;;;;3.93;100.00;98997.84;112842;1249;22471;-51
2024/01/25 12:23:35;;;;;;;13.10;7.40;;;;;;;3.88;100.00;98996.77;112817;1249;22946;-47
2024/01/25 12:26:05;;;;;;;11.00;6.60;;;;;;;3.83;100.00;99003.29;112730;1249;22190;-48
2024/01/25 12:28:37;;;;;;;13.20;6.70;;;;;;;3.80;100.00;98999.48;112482;1249;23158;-51
2024/01/25 12:31:05;;;;;;;7.90;5.70;;;;;;;3.79;100.00;99000.16;112861;1249;22978;-51
2024/01/25 12:33:32;;;;;;;9.70;5.40;;;;;;;3.78;100.00;99005.52;112810;1249;23140;-51
2024/01/25 12:36:01;;;;;;;9.90;5.90;;;;;;;3.76;100.00;99003.06;112938;1249;22366;-47
2024/01/25 12:38:31;;;;;;;13.00;5.00;;;;;;;3.75;100.00;99002.02;112880;1249;23664;-48
2024/01/25 12:40:58;;;;;;;9.20;5.10;;;;;;;3.74;100.00;99004.62;112851;1249;23415;-51
2024/01/25 12:43:25;;;;;;;8.80;6.30;;;;;;;3.68;100.00;99003.38;112919;1249;22744;-51
2024/01/25 12:45:52;;;;;;;13.00;6.90;;;;;;;3.66;100.00;99007.33;112922;1249;23084;-52
2024/01/25 12:48:24;;;;;;;13.70;7.50;;;;;;;3.66;100.00;99003.70;112817;1249;22401;-48
2024/01/25 12:50:51;;;;;;;15.80;7.50;;;;;;;3.66;100.00;99005.94;112839;1249;22371;-46
2024/01/25 12:53:22;;;;;;;15.50;9.20;;;;;;;3.66;100.00;99004.91;112912;1249;23230;-47
2024/01/25 12:55:50;;;;;;;12.00;6.70;;;;;;;3.66;100.00;99006.98;112840;1249;22375;-50
2024/01/25 12:58:17;;;;;;;15.90;6.50;;;;;;;3.67;100.00;99006.81;112846;1249;22374;-50
2024/01/25 13:00:45;;;;;;;16.10;8.10;;;;;;;3.66;100.00;99003.36;112773;1249;22797;-52
2024/01/25 13:03:12;;;;;;;14.80;9.20;;;;;;;3.65;100.00;98998.16;112739;1249;22236;-50
2024/01/25 13:05:39;;;;;;;17.80;7.70;;;;;;;3.62;100.00;98997.98;112754;1249;23146;-51
2024/01/25 13:08:06;;;;;;;19.30;10.10;;;;;;;3.58;100.00;99001.55;112792;1249;22398;-52
2024/01/25 13:10:34;;;;;;;13.00;8.30;;;;;;;3.55;100.00;98996.73;112779;1249;22179;-51
2024/01/25 13:13:00;;;;;;;12.80;8.10;;;;;;;3.56;100.00;98996.55;112862;1249;23296;-51
2024/01/25 13:15:28;;;;;;;14.30;7.30;;;;;;;3.57;100.00;98994.66;112833;1249;22373;-51
2024/01/25 13:17:55;;;;;;;9.40;5.80;;;;;;;3.58;100.00;98996.55;112867;1249;22404;-52
2024/01/25 13:20:22;;;;;;;9.40;5.80;;;;;;;3.58;100.00;98997.94;112807;1249;22406;-51
2024/01/25 13:22:49;;;;;;;10.90;6.00;;;;;;;3.57;100.00;98997.94;112723;1249;22271;-52
2024/01/25 13:25:16;;;;;;;14.70;5.70;;;;;;;3.57;100.00;98996.91;112768;1249;22384;-52
2024/01/25 13:27:43;;;;;;;10.90;5.60;;;;;;;3.58;100.00;98995.52;112790;1249;22401;-49
2024/01/25 13:30:13;;;;;;;9.20;5.10;;;;;;;3.59;100.00;98997.41;112855;1249;22480;-48
2024/01/25 13:32:40;;;;;;;9.70;4.00;;;;;;;3.57;100.00;98996.55;112900;1237;23351;-48
2024/01/25 13:35:07;;;;;;;10.20;4.50;;;;;;;3.54;100.00;98998.78;112835;1249;22461;-51
2024/01/25 13:37:34;;;;;;;7.50;4.80;;;;;;;3.49;100.00;98997.71;112864;1249;22980;-47
2024/01/25 13:40:03;;;;;;;12.30;6.00;;;;;;;3.45;100.00;98998.20;112948;1249;22403;-48
2024/01/25 13:42:31;;;;;;;9.20;4.90;;;;;;;3.40;100.00;99002.45;112875;1249;22330;-52
2024/01/25 13:44:57;;;;;;;8.20;5.20;;;;;;;3.37;100.00;99004.86;112868;1249;23580;-47
2024/01/25 13:47:24;;;;;;;13.20;5.40;;;;;;;3.34;100.00;99002.59;112937;1249;22383;-47
2024/01/25 13:49:51;;;;;;;11.10;5.40;;;;;;;3.31;100.00;99002.05;112927;1249;22384;-51
2024/01/25 13:52:21;;;;;;;9.10;4.90;;;;;;;3.28;100.00;99002.35;112926;1249;22355;-51
2024/01/25 13:54:51;;;;;;;9.50;5.00;;;;;;;3.26;100.00;98998.73;112940;1249;22359;-50
2024/01/25 13:57:23;;;;;;;10.20;5.10;;;;;;;3.24;100.00;98999.89;112876;1249;22249;-51
2024/01/25 13:59:51;;;;;;;12.40;6.20;;;;;;;3.22;100.00;98999.72;112955;1249;22755;-52
2024/01/25 14:02:17;;;;;;;11.20;6.30;;;;;;;3.19;100.00;98999.18;112946;1249;22660;-52
2024/01/25 14:04:44;;;;;;;14.30;7.10;;;;;;;3.15;100.00;98998.29;112891;1249;23134;-52
2024/01/25 14:07:14;;;;;;;17.60;8.90;;;;;;;3.11;100.00;99000.48;112926;1249;22466;-50
2024/01/25 14:09:42;;;;;;;19.00;9.50;;;;;;;3.07;100.00;99001.81;112965;1249;23103;-50
2024/01/25 14:12:09;;;;;;;15.90;9.90;;;;;;;3.04;100.00;99005.41;112949;1249;22403;-53
2024/01/25 14:14:37;;;;;;;15.00;7.60;;;;;;;3.02;100.00;99005.57;112939;1249;22399;-51
2024/01/25 14:17:04;;;;;;;15.80;8.10;;;;;;;3.00;100.00;99006.91;112941;1249;22456;-51
2024/01/25 14:19:31;;;;;;;17.40;8.20;;;;;;;2.97;100.00;99006.04;112928;1249;22195;-47
2024/01/25 14:21:59;;;;;;;16.80;8.60;;;;;;;2.93;100.00;99002.02;112922;1249;22491;-51
2024/01/25 14:24:46;;;;;;;17.60;9.40;;;;;;;2.89;100.00;99004.40;112933;1249;23058;-47
2024/01/25 14:27:13;;;;;;;16.10;8.90;;;;;;;2.87;100.00;99001.11;112966;1249;22325;-46
2024/01/25 14:29:40;;;;;;;21.20;10.20;;;;;;;2.88;100.00;99004.39;112946;1249;23194;-46
2024/01/25 14:32:07;;;;;;;21.60;10.40;;;;;;;2.88;100.00;99009.73;112955;1249;22406;-47
2024/01/25 14:34:35;;;;;;;25.30;10.70;;;;;;;2.87;100.00;99013.00;112993;1249;22393;-47
2024/01/25 14:37:02;;;;;;;25.30;12.20;;;;;;;2.84;100.00;99014.19;112951;1249;22266;-48
2024/01/25 14:39:29;;;;;;;22.60;9.40;;;;;;;2.83;100.00;99014.84;112984;1249;22406;-47
2024/01/25 14:41:56;;;;;;;17.00;8.40;;;;;;;2.81;100.00;99013.63;112936;1249;23123;-51
2024/01/25 14:44:23;;;;;;;11.70;7.80;;;;;;;2.78;100.00;99014.09;112968;1249;22558;-51
2024/01/25 14:46:49;;;;;;;10.40;7.20;;;;;;;2.74;100.00;99016.82;112966;1249;22434;-47
2024/01/25 14:49:16;;;;;;;18.50;9.50;;;;;;;2.73;100.00;99020.77;112982;1249;22378;-51
2024/01/25 14:51:43;;;;;;;13.20;7.70;;;;;;;2.73;100.00;99018.20;112896;1249;23148;-51
2024/01/25 14:54:10;;;;;;;16.40;7.00;;;;;;;2.73;100.00;99016.64;112910;1249;22380;-51
2024/01/25 14:56:38;;;;;;;12.60;5.70;;;;;;;2.71;100.00;99021.77;112917;1249;22368;-51
2024/01/25 14:59:05;;;;;;;10.90;5.40;;;;;;;2.69;100.00;99022.80;112967;1249;22222;-51
2024/01/25 15:01:31;;;;;;;11.40;5.80;;;;;;;2.66;100.00;99025.16;112904;1249;23039;-48
2024/01/25 15:03:59;;;;;;;12.40;6.20;;;;;;;2.63;100.00;99027.71;112940;1249;22917;-48
2024/01/25 15:06:26;;;;;;;13.40;6.40;;;;;;;2.61;100.00;99023.75;112879;1249;23192;-48
2024/01/25 15:08:53;;;;;;;10.70;6.40;;;;;;;2.61;100.00;99027.36;112920;1249;22470;-47
2024/01/25 15:11:20;;;;;;;14.20;6.00;;;;;;;2.61;100.00;99030.27;112884;1249;23335;-47
2024/01/25 15:13:48;;;;;;;18.80;9.40;;;;;;;2.62;100.00;99031.33;112913;1249;22387;-47
2024/01/25 15:16:15;;;;;;;17.40;9.60;;;;;;;2.60;100.00;99033.20;112985;1249;23067;-47
2024/01/25 15:18:46;;;;;;;12.60;7.20;;;;;;;2.58;100.00;99033.33;112917;1249;22386;-47
2024/01/25 15:21:13;;;;;;;13.80;7.40;;;;;;;2.56;100.00;99036.59;112921;1249;22398;-47
2024/01/25 15:23:40;;;;;;;21.90;9.90;;;;;;;2.55;100.00;99035.20;112942;1249;22407;-48
